sensor_id;sensor_type;location;lat;lon;timestamp;temperature;humidity
62912;DHT22;49111;51.028;4.218;2024-01-11T00:03:55;-0.70;99.90
62912;DHT22;49111;51.028;4.218;2024-01-11T00:06:49;-0.80;99.90
62912;DHT22;49111;51.028;4.218;2024-01-11T00:09:15;-0.80;99.90
62912;DHT22;49111;51.028;4.218;2024-01-11T00:11:41;-0.80;99.90
62912;DHT22;49111;51.028;4.218;2024-01-11T00:14:07;-0.80;99.90
62912;DHT22;49111;51.028;4.218;2024-01-11T00:16:33;-0.90;99.90
62912;DHT22;49111;51.028;4.218;2024-01-11T00:19:00;-0.80;99.90
62912;DHT22;49111;51.028;4.218;2024-01-11T00:21:33;-0.80;99.90
62912;DHT22;49111;51.028;4.218;2024-01-11T00:27:00;-0.80;99.90
62912;DHT22;49111;51.028;4.218;2024-01-11T00:30:01;-0.90;99.90
62912;DHT22;49111;51.028;4.218;2024-01-11T00:32:27;-0.80;99.90
62912;DHT22;49111;51.028;4.218;2024-01-11T00:35:07;-0.90;99.90
62912;DHT22;49111;51.028;4.218;2024-01-11T00:37:36;-0.90;99.90
62912;DHT22;49111;51.028;4.218;2024-01-11T00:40:07;0.30;99.90
62912;DHT22;49111;51.028;4.218;2024-01-11T00:42:34;-0.90;99.90
62912;DHT22;49111;51.028;4.218;2024-01-11T00:45:02;-0.90;99.90
62912;DHT22;49111;51.028;4.218;2024-01-11T00:47:58;-1.00;99.90
62912;DHT22;49111;51.028;4.218;2024-01-11T00:50:35;-1.00;99.90
62912;DHT22;49111;51.028;4.218;2024-01-11T00:53:01;-0.20;99.90
62912;DHT22;49111;51.028;4.218;2024-01-11T00:55:30;-0.30;99.90
62912;DHT22;49111;51.028;4.218;2024-01-11T00:58:04;0.20;99.90
62912;DHT22;49111;51.028;4.218;2024-01-11T01:00:39;-1.00;99.90
62912;DHT22;49111;51.028;4.218;2024-01-11T01:03:05;-1.00;99.90
62912;DHT22;49111;51.028;4.218;2024-01-11T01:05:31;-1.10;99.90
62912;DHT22;49111;51.028;4.218;2024-01-11T01:07:57;-1.00;99.90
62912;DHT22;49111;51.028;4.218;2024-01-11T01:16:39;-1.00;99.90
62912;DHT22;49111;51.028;4.218;2024-01-11T01:22:50;-1.00;99.90
62912;DHT22;49111;51.028;4.218;2024-01-11T01:25:24;0.20;99.90
62912;DHT22;49111;51.028;4.218;2024-01-11T01:28:04;-1.20;99.90
62912;DHT22;49111;51.028;4.218;2024-01-11T01:30:36;-1.10;99.90
62912;DHT22;49111;51.028;4.218;2024-01-11T01:33:12;-0.20;99.90
62912;DHT22;49111;51.028;4.218;2024-01-11T01:35:39;-1.10;99.90
62912;DHT22;49111;51.028;4.218;2024-01-11T01:38:15;-1.10;99.90
62912;DHT22;49111;51.028;4.218;2024-01-11T01:40:55;-1.10;99.90
62912;DHT22;49111;51.028;4.218;2024-01-11T01:43:31;-1.10;99.90
62912;DHT22;49111;51.028;4.218;2024-01-11T01:46:21;-1.10;99.90
62912;DHT22;49111;51.028;4.218;2024-01-11T01:48:51;-1.10;99.90
62912;DHT22;49111;51.028;4.218;2024-01-11T01:51:48;-1.10;99.90
62912;DHT22;49111;51.028;4.218;2024-01-11T01:54:17;-1.10;99.90
62912;DHT22;49111;51.028;4.218;2024-01-11T01:57:20;-1.10;99.90
62912;DHT22;49111;51.028;4.218;2024-01-11T01:59:51;-1.10;99.90
62912;DHT22;49111;51.028;4.218;2024-01-11T02:02:22;-1.10;99.90
62912;DHT22;49111;51.028;4.218;2024-01-11T02:05:20;-1.20;99.90
62912;DHT22;49111;51.028;4.218;2024-01-11T02:07:46;-1.20;99.90
62912;DHT22;49111;51.028;4.218;2024-01-11T02:10:21;-1.20;99.90
62912;DHT22;49111;51.028;4.218;2024-01-11T02:13:19;-0.50;99.90
62912;DHT22;49111;51.028;4.218;2024-01-11T02:15:48;-1.20;99.90
62912;DHT22;49111;51.028;4.218;2024-01-11T02:18:36;0.30;99.90
62912;DHT22;49111;51.028;4.218;2024-01-11T02:21:42;-1.20;99.90
62912;DHT22;49111;51.028;4.218;2024-01-11T02:24:19;-1.20;99.90
62912;DHT22;49111;51.028;4.218;2024-01-11T02:27:04;-1.00;99.90
62912;DHT22;49111;51.028;4.218;2024-01-11T02:33:01;-1.30;99.90
62912;DHT22;49111;51.028;4.218;2024-01-11T02:35:28;-1.30;99.90
62912;DHT22;49111;51.028;4.218;2024-01-11T02:37:57;-0.50;99.90
62912;DHT22;49111;51.028;4.218;2024-01-11T02:40:35;-1.30;99.90
62912;DHT22;49111;51.028;4.218;2024-01-11T02:43:32;-1.40;99.90
62912;DHT22;49111;51.028;4.218;2024-01-11T02:46:05;-1.40;99.90
62912;DHT22;49111;51.028;4.218;2024-01-11T02:48:44;-1.40;99.90
62912;DHT22;49111;51.028;4.218;2024-01-11T02:51:13;-1.40;99.90
62912;DHT22;49111;51.028;4.218;2024-01-11T02:54:02;-1.40;99.90
62912;DHT22;49111;51.028;4.218;2024-01-11T02:56:46;-1.50;99.90
62912;DHT22;49111;51.028;4.218;2024-01-11T02:59:12;-1.50;99.90
62912;DHT22;49111;51.028;4.218;2024-01-11T03:02:00;-1.50;99.90
62912;DHT22;49111;51.028;4.218;2024-01-11T03:04:30;-1.50;99.90
62912;DHT22;49111;51.028;4.218;2024-01-11T03:13:51;-1.60;99.90
62912;DHT22;49111;51.028;4.218;2024-01-11T03:16:23;-1.60;99.90
62912;DHT22;49111;51.028;4.218;2024-01-11T03:18:51;-1.60;99.90
62912;DHT22;49111;51.028;4.218;2024-01-11T03:21:25;-0.20;99.90
62912;DHT22;49111;51.028;4.218;2024-01-11T03:23:52;-1.60;99.90
62912;DHT22;49111;51.028;4.218;2024-01-11T03:26:28;-1.10;99.90
62912;DHT22;49111;51.028;4.218;2024-01-11T03:29:02;-1.60;99.90
62912;DHT22;49111;51.028;4.218;2024-01-11T03:31:31;-1.10;99.90
62912;DHT22;49111;51.028;4.218;2024-01-11T03:34:10;-1.60;99.90
62912;DHT22;49111;51.028;4.218;2024-01-11T03:36:47;-1.60;99.90
62912;DHT22;49111;51.028;4.218;2024-01-11T03:39:21;-1.60;99.90
62912;DHT22;49111;51.028;4.218;2024-01-11T03:41:57;-1.70;99.90
62912;DHT22;49111;51.028;4.218;2024-01-11T03:44:27;-0.30;99.90
62912;DHT22;49111;51.028;4.218;2024-01-11T03:47:15;-1.70;99.90
62912;DHT22;49111;51.028;4.218;2024-01-11T03:49:40;-1.70;99.90
62912;DHT22;49111;51.028;4.218;2024-01-11T03:52:06;-1.70;99.90
62912;DHT22;49111;51.028;4.218;2024-01-11T03:54:40;-1.70;99.90
62912;DHT22;49111;51.028;4.218;2024-01-11T03:57:16;-1.70;99.90
62912;DHT22;49111;51.028;4.218;2024-01-11T04:00:11;-1.70;99.90
62912;DHT22;49111;51.028;4.218;2024-01-11T04:06:31;-1.80;99.90
62912;DHT22;49111;51.028;4.218;2024-01-11T04:09:00;-1.70;99.90
62912;DHT22;49111;51.028;4.218;2024-01-11T04:11:39;-1.30;99.90
62912;DHT22;49111;51.028;4.218;2024-01-11T04:14:06;-1.80;99.90
62912;DHT22;49111;51.028;4.218;2024-01-11T04:16:42;-0.80;99.90
62912;DHT22;49111;51.028;4.218;2024-01-11T04:19:45;-1.90;99.90
62912;DHT22;49111;51.028;4.218;2024-01-11T04:25:39;-1.80;99.90
62912;DHT22;49111;51.028;4.218;2024-01-11T04:28:31;-1.90;99.90
62912;DHT22;49111;51.028;4.218;2024-01-11T04:30:58;-1.90;99.90
62912;DHT22;49111;51.028;4.218;2024-01-11T04:33:32;-0.50;99.90
62912;DHT22;49111;51.028;4.218;2024-01-11T04:36:04;-0.50;99.90
62912;DHT22;49111;51.028;4.218;2024-01-11T04:38:43;-1.90;99.90
62912;DHT22;49111;51.028;4.218;2024-01-11T04:41:23;-1.90;99.90
62912;DHT22;49111;51.028;4.218;2024-01-11T04:43:53;-1.90;99.90
62912;DHT22;49111;51.028;4.218;2024-01-11T04:46:52;-0.70;99.90
62912;DHT22;49111;51.028;4.218;2024-01-11T04:49:19;-1.80;99.90
62912;DHT22;49111;51.028;4.218;2024-01-11T04:51:58;-0.70;99.90
62912;DHT22;49111;51.028;4.218;2024-01-11T04:54:56;-1.80;99.90
62912;DHT22;49111;51.028;4.218;2024-01-11T04:57:31;-1.80;99.90
62912;DHT22;49111;51.028;4.218;2024-01-11T05:00:07;-0.60;99.90
62912;DHT22;49111;51.028;4.218;2024-01-11T05:02:34;-1.80;99.90
62912;DHT22;49111;51.028;4.218;2024-01-11T05:05:27;-1.80;99.90
62912;DHT22;49111;51.028;4.218;2024-01-11T05:07:53;-1.90;99.90
62912;DHT22;49111;51.028;4.218;2024-01-11T05:10:53;-1.90;99.90
62912;DHT22;49111;51.028;4.218;2024-01-11T05:13:20;-1.90;99.90
62912;DHT22;49111;51.028;4.218;2024-01-11T05:15:47;-1.90;99.90
62912;DHT22;49111;51.028;4.218;2024-01-11T05:18:41;-0.70;99.90
62912;DHT22;49111;51.028;4.218;2024-01-11T05:21:19;-1.90;99.90
62912;DHT22;49111;51.028;4.218;2024-01-11T05:24:02;-0.90;99.90
62912;DHT22;49111;51.028;4.218;2024-01-11T05:26:35;-1.90;99.90
62912;DHT22;49111;51.028;4.218;2024-01-11T05:29:16;-1.90;99.90
62912;DHT22;49111;51.028;4.218;2024-01-11T05:31:48;-1.50;99.90
62912;DHT22;49111;51.028;4.218;2024-01-11T05:34:25;-0.90;99.90
62912;DHT22;49111;51.028;4.218;2024-01-11T05:37:00;-1.10;99.90
62912;DHT22;49111;51.028;4.218;2024-01-11T05:39:33;-2.10;99.90
62912;DHT22;49111;51.028;4.218;2024-01-11T05:42:02;-0.80;99.90
62912;DHT22;49111;51.028;4.218;2024-01-11T05:44:29;-2.00;99.90
62912;DHT22;49111;51.028;4.218;2024-01-11T05:46:56;-2.10;99.90
62912;DHT22;49111;51.028;4.218;2024-01-11T05:49:22;-0.70;99.90
62912;DHT22;49111;51.028;4.218;2024-01-11T05:51:55;-2.10;99.90
62912;DHT22;49111;51.028;4.218;2024-01-11T05:54:35;-0.90;99.90
62912;DHT22;49111;51.028;4.218;2024-01-11T05:57:08;-0.60;99.90
62912;DHT22;49111;51.028;4.218;2024-01-11T05:59:37;-2.10;99.90
62912;DHT22;49111;51.028;4.218;2024-01-11T06:02:07;-1.20;99.90
62912;DHT22;49111;51.028;4.218;2024-01-11T06:04:38;-2.10;99.90
62912;DHT22;49111;51.028;4.218;2024-01-11T06:11:11;-2.20;99.90
62912;DHT22;49111;51.028;4.218;2024-01-11T06:17:35;-2.30;99.90
62912;DHT22;49111;51.028;4.218;2024-01-11T06:20:01;-2.30;99.90
62912;DHT22;49111;51.028;4.218;2024-01-11T06:22:27;-2.30;99.90
62912;DHT22;49111;51.028;4.218;2024-01-11T06:24:53;-2.30;99.90
62912;DHT22;49111;51.028;4.218;2024-01-11T06:27:19;-2.30;99.90
62912;DHT22;49111;51.028;4.218;2024-01-11T06:29:45;-2.30;99.90
62912;DHT22;49111;51.028;4.218;2024-01-11T06:32:11;-2.30;99.90
62912;DHT22;49111;51.028;4.218;2024-01-11T06:34:37;-2.30;99.90
62912;DHT22;49111;51.028;4.218;2024-01-11T06:37:03;-2.30;99.90
62912;DHT22;49111;51.028;4.218;2024-01-11T06:39:29;-2.30;99.90
62912;DHT22;49111;51.028;4.218;2024-01-11T06:41:57;-2.30;99.90
62912;DHT22;49111;51.028;4.218;2024-01-11T06:44:23;-2.30;99.90
62912;DHT22;49111;51.028;4.218;2024-01-11T06:46:50;-2.30;99.90
62912;DHT22;49111;51.028;4.218;2024-01-11T06:49:16;-2.30;99.90
62912;DHT22;49111;51.028;4.218;2024-01-11T06:51:42;-2.30;99.90
62912;DHT22;49111;51.028;4.218;2024-01-11T06:54:07;-2.30;99.90
62912;DHT22;49111;51.028;4.218;2024-01-11T06:56:33;-2.30;99.90
62912;DHT22;49111;51.028;4.218;2024-01-11T06:58:59;-2.30;99.90
62912;DHT22;49111;51.028;4.218;2024-01-11T07:01:26;-2.40;99.90
62912;DHT22;49111;51.028;4.218;2024-01-11T07:03:52;-2.40;99.90
62912;DHT22;49111;51.028;4.218;2024-01-11T07:06:18;-2.40;99.90
62912;DHT22;49111;51.028;4.218;2024-01-11T07:08:43;-2.40;99.90
62912;DHT22;49111;51.028;4.218;2024-01-11T07:11:10;-2.40;99.90
62912;DHT22;49111;51.028;4.218;2024-01-11T07:13:36;-2.40;99.90
62912;DHT22;49111;51.028;4.218;2024-01-11T07:16:03;-2.40;99.90
62912;DHT22;49111;51.028;4.218;2024-01-11T07:18:29;-2.40;99.90
62912;DHT22;49111;51.028;4.218;2024-01-11T07:20:59;-2.40;99.90
62912;DHT22;49111;51.028;4.218;2024-01-11T07:23:26;-2.50;99.90
62912;DHT22;49111;51.028;4.218;2024-01-11T07:25:52;-2.50;99.90
62912;DHT22;49111;51.028;4.218;2024-01-11T07:28:18;-2.50;99.90
62912;DHT22;49111;51.028;4.218;2024-01-11T07:30:45;-2.50;99.90
62912;DHT22;49111;51.028;4.218;2024-01-11T07:33:12;-2.50;99.90
62912;DHT22;49111;51.028;4.218;2024-01-11T07:35:38;-2.60;99.90
62912;DHT22;49111;51.028;4.218;2024-01-11T07:38:04;-2.50;99.90
62912;DHT22;49111;51.028;4.218;2024-01-11T07:40:29;-2.50;99.90
62912;DHT22;49111;51.028;4.218;2024-01-11T07:42:55;-2.50;99.90
62912;DHT22;49111;51.028;4.218;2024-01-11T07:45:21;-2.50;99.90
62912;DHT22;49111;51.028;4.218;2024-01-11T07:47:47;-2.60;99.90
62912;DHT22;49111;51.028;4.218;2024-01-11T07:50:13;-2.60;99.90
62912;DHT22;49111;51.028;4.218;2024-01-11T07:52:39;-2.60;99.90
62912;DHT22;49111;51.028;4.218;2024-01-11T07:55:09;-2.60;99.90
62912;DHT22;49111;51.028;4.218;2024-01-11T07:57:37;-2.60;99.90
62912;DHT22;49111;51.028;4.218;2024-01-11T08:00:06;-2.60;99.90
62912;DHT22;49111;51.028;4.218;2024-01-11T08:02:39;-2.60;99.90
62912;DHT22;49111;51.028;4.218;2024-01-11T08:05:05;-2.60;99.90
62912;DHT22;49111;51.028;4.218;2024-01-11T08:07:31;-2.60;99.90
62912;DHT22;49111;51.028;4.218;2024-01-11T08:09:57;-2.00;99.90
62912;DHT22;49111;51.028;4.218;2024-01-11T08:12:23;-2.60;99.90
62912;DHT22;49111;51.028;4.218;2024-01-11T08:14:48;-2.60;99.90
62912;DHT22;49111;51.028;4.218;2024-01-11T08:17:15;-2.50;99.90
62912;DHT22;49111;51.028;4.218;2024-01-11T08:19:41;-2.60;99.90
62912;DHT22;49111;51.028;4.218;2024-01-11T08:22:10;-2.50;99.90
62912;DHT22;49111;51.028;4.218;2024-01-11T08:24:37;-2.50;99.90
62912;DHT22;49111;51.028;4.218;2024-01-11T08:27:03;-2.50;99.90
62912;DHT22;49111;51.028;4.218;2024-01-11T08:29:29;-2.50;99.90
62912;DHT22;49111;51.028;4.218;2024-01-11T08:31:55;-2.50;99.90
62912;DHT22;49111;51.028;4.218;2024-01-11T08:34:22;-2.50;99.90
62912;DHT22;49111;51.028;4.218;2024-01-11T08:36:49;-2.40;99.90
62912;DHT22;49111;51.028;4.218;2024-01-11T08:39:14;-2.40;99.90
62912;DHT22;49111;51.028;4.218;2024-01-11T08:41:40;-2.40;99.90
62912;DHT22;49111;51.028;4.218;2024-01-11T08:44:07;-2.40;99.90
62912;DHT22;49111;51.028;4.218;2024-01-11T08:46:33;-2.30;99.90
62912;DHT22;49111;51.028;4.218;2024-01-11T08:49:03;-2.30;99.90
62912;DHT22;49111;51.028;4.218;2024-01-11T08:51:31;-2.20;99.90
62912;DHT22;49111;51.028;4.218;2024-01-11T08:53:58;-2.20;99.90
62912;DHT22;49111;51.028;4.218;2024-01-11T08:56:24;-2.10;99.90
62912;DHT22;49111;51.028;4.218;2024-01-11T08:58:50;-2.10;99.90
62912;DHT22;49111;51.028;4.218;2024-01-11T09:01:16;-2.00;99.90
62912;DHT22;49111;51.028;4.218;2024-01-11T09:03:42;-2.00;99.90
62912;DHT22;49111;51.028;4.218;2024-01-11T09:06:08;-2.00;99.90
62912;DHT22;49111;51.028;4.218;2024-01-11T09:08:34;-1.90;99.90
62912;DHT22;49111;51.028;4.218;2024-01-11T09:10:59;-1.90;99.90
62912;DHT22;49111;51.028;4.218;2024-01-11T09:13:26;-1.80;99.90
62912;DHT22;49111;51.028;4.218;2024-01-11T09:15:53;-1.80;99.90
62912;DHT22;49111;51.028;4.218;2024-01-11T09:18:20;-1.70;99.90
62912;DHT22;49111;51.028;4.218;2024-01-11T09:20:46;-1.50;99.90
62912;DHT22;49111;51.028;4.218;2024-01-11T09:23:13;-1.60;99.90
62912;DHT22;49111;51.028;4.218;2024-01-11T09:25:39;-1.60;99.90
62912;DHT22;49111;51.028;4.218;2024-01-11T09:28:05;-1.60;99.90
62912;DHT22;49111;51.028;4.218;2024-01-11T09:30:31;-1.50;99.90
62912;DHT22;49111;51.028;4.218;2024-01-11T09:32:57;-1.50;99.90
62912;DHT22;49111;51.028;4.218;2024-01-11T09:35:23;-1.40;99.90
62912;DHT22;49111;51.028;4.218;2024-01-11T09:37:50;-1.40;99.90
62912;DHT22;49111;51.028;4.218;2024-01-11T09:40:17;-1.30;99.90
62912;DHT22;49111;51.028;4.218;2024-01-11T09:42:43;-1.20;99.90
62912;DHT22;49111;51.028;4.218;2024-01-11T09:45:13;-1.20;99.90
62912;DHT22;49111;51.028;4.218;2024-01-11T09:47:40;-0.80;99.90
62912;DHT22;49111;51.028;4.218;2024-01-11T09:50:07;-1.10;99.90
62912;DHT22;49111;51.028;4.218;2024-01-11T09:52:33;-1.00;99.90
62912;DHT22;49111;51.028;4.218;2024-01-11T09:54:59;-0.90;99.90
62912;DHT22;49111;51.028;4.218;2024-01-11T09:57:31;-0.70;99.90
62912;DHT22;49111;51.028;4.218;2024-01-11T10:00:04;-0.50;99.90
62912;DHT22;49111;51.028;4.218;2024-01-11T10:02:33;-0.60;99.90
62912;DHT22;49111;51.028;4.218;2024-01-11T10:04:59;-0.60;99.90
62912;DHT22;49111;51.028;4.218;2024-01-11T10:07:25;-0.60;99.90
62912;DHT22;49111;51.028;4.218;2024-01-11T10:09:51;-0.60;99.90
62912;DHT22;49111;51.028;4.218;2024-01-11T10:12:18;-0.70;99.90
62912;DHT22;49111;51.028;4.218;2024-01-11T10:14:46;-0.70;99.90
62912;DHT22;49111;51.028;4.218;2024-01-11T10:17:13;-0.60;99.90
62912;DHT22;49111;51.028;4.218;2024-01-11T10:19:38;-0.60;99.90
62912;DHT22;49111;51.028;4.218;2024-01-11T10:22:04;-0.50;99.90
62912;DHT22;49111;51.028;4.218;2024-01-11T10:24:31;-0.50;99.90
62912;DHT22;49111;51.028;4.218;2024-01-11T10:26:57;-0.40;99.90
62912;DHT22;49111;51.028;4.218;2024-01-11T10:29:33;-0.40;99.90
62912;DHT22;49111;51.028;4.218;2024-01-11T10:32:03;-0.40;99.90
62912;DHT22;49111;51.028;4.218;2024-01-11T10:34:29;-0.30;99.90
62912;DHT22;49111;51.028;4.218;2024-01-11T10:36:56;-0.30;99.90
62912;DHT22;49111;51.028;4.218;2024-01-11T10:39:26;-0.30;99.90
62912;DHT22;49111;51.028;4.218;2024-01-11T10:42:05;-0.20;99.90
62912;DHT22;49111;51.028;4.218;2024-01-11T10:44:33;-0.20;99.90
62912;DHT22;49111;51.028;4.218;2024-01-11T10:47:03;-0.20;99.90
62912;DHT22;49111;51.028;4.218;2024-01-11T10:49:32;-0.10;99.90
62912;DHT22;49111;51.028;4.218;2024-01-11T10:52:01;0.00;99.90
62912;DHT22;49111;51.028;4.218;2024-01-11T10:54:28;0.00;99.90
62912;DHT22;49111;51.028;4.218;2024-01-11T10:56:56;0.10;99.90
62912;DHT22;49111;51.028;4.218;2024-01-11T10:59:26;0.10;99.90
62912;DHT22;49111;51.028;4.218;2024-01-11T11:01:57;0.00;99.90
62912;DHT22;49111;51.028;4.218;2024-01-11T11:04:25;0.10;99.90
62912;DHT22;49111;51.028;4.218;2024-01-11T11:06:55;0.10;99.90
62912;DHT22;49111;51.028;4.218;2024-01-11T11:09:23;0.20;99.90
62912;DHT22;49111;51.028;4.218;2024-01-11T11:11:49;0.20;99.90
62912;DHT22;49111;51.028;4.218;2024-01-11T11:14:15;0.20;99.90
62912;DHT22;49111;51.028;4.218;2024-01-11T11:16:44;0.30;99.90
62912;DHT22;49111;51.028;4.218;2024-01-11T11:19:12;0.40;99.90
62912;DHT22;49111;51.028;4.218;2024-01-11T11:21:44;0.50;99.90
62912;DHT22;49111;51.028;4.218;2024-01-11T11:24:11;0.50;99.90
62912;DHT22;49111;51.028;4.218;2024-01-11T11:26:38;0.50;99.90
62912;DHT22;49111;51.028;4.218;2024-01-11T11:29:04;0.60;99.90
62912;DHT22;49111;51.028;4.218;2024-01-11T11:31:44;0.70;99.90
62912;DHT22;49111;51.028;4.218;2024-01-11T11:34:42;0.60;99.90
62912;DHT22;49111;51.028;4.218;2024-01-11T11:37:10;0.70;99.90
62912;DHT22;49111;51.028;4.218;2024-01-11T11:39:36;0.80;99.90
62912;DHT22;49111;51.028;4.218;2024-01-11T11:42:03;0.80;99.90
62912;DHT22;49111;51.028;4.218;2024-01-11T11:44:29;0.90;99.90
62912;DHT22;49111;51.028;4.218;2024-01-11T11:47:18;1.00;99.90
62912;DHT22;49111;51.028;4.218;2024-01-11T11:50:13;1.00;99.90
62912;DHT22;49111;51.028;4.218;2024-01-11T11:52:40;1.10;99.90
62912;DHT22;49111;51.028;4.218;2024-01-11T11:55:09;1.20;99.90
62912;DHT22;49111;51.028;4.218;2024-01-11T11:57:35;1.30;99.90
62912;DHT22;49111;51.028;4.218;2024-01-11T12:00:02;1.20;99.90
62912;DHT22;49111;51.028;4.218;2024-01-11T12:02:36;1.30;99.90
62912;DHT22;49111;51.028;4.218;2024-01-11T12:05:02;1.40;99.90
62912;DHT22;49111;51.028;4.218;2024-01-11T12:07:31;1.50;99.90
62912;DHT22;49111;51.028;4.218;2024-01-11T12:09:57;1.50;99.90
62912;DHT22;49111;51.028;4.218;2024-01-11T12:12:24;1.60;99.90
62912;DHT22;49111;51.028;4.218;2024-01-11T12:14:50;1.70;99.90
62912;DHT22;49111;51.028;4.218;2024-01-11T12:17:16;1.70;99.90
62912;DHT22;49111;51.028;4.218;2024-01-11T12:19:42;1.90;99.90
62912;DHT22;49111;51.028;4.218;2024-01-11T12:22:08;2.00;99.90
62912;DHT22;49111;51.028;4.218;2024-01-11T12:24:34;2.10;99.90
62912;DHT22;49111;51.028;4.218;2024-01-11T12:27:01;2.10;99.90
62912;DHT22;49111;51.028;4.218;2024-01-11T12:29:30;2.20;99.90
62912;DHT22;49111;51.028;4.218;2024-01-11T12:31:59;2.30;99.90
62912;DHT22;49111;51.028;4.218;2024-01-11T12:34:28;2.40;99.90
62912;DHT22;49111;51.028;4.218;2024-01-11T12:36:54;2.40;99.90
62912;DHT22;49111;51.028;4.218;2024-01-11T12:39:21;2.50;99.90
62912;DHT22;49111;51.028;4.218;2024-01-11T12:41:50;2.50;99.90
62912;DHT22;49111;51.028;4.218;2024-01-11T12:44:17;2.60;99.90
62912;DHT22;49111;51.028;4.218;2024-01-11T12:46:49;2.60;99.90
62912;DHT22;49111;51.028;4.218;2024-01-11T12:49:16;2.60;99.90
62912;DHT22;49111;51.028;4.218;2024-01-11T12:51:42;2.50;99.90
62912;DHT22;49111;51.028;4.218;2024-01-11T12:54:13;2.60;99.90
62912;DHT22;49111;51.028;4.218;2024-01-11T12:56:43;2.60;99.90
62912;DHT22;49111;51.028;4.218;2024-01-11T12:59:09;2.60;99.90
62912;DHT22;49111;51.028;4.218;2024-01-11T13:01:39;2.70;99.90
62912;DHT22;49111;51.028;4.218;2024-01-11T13:04:05;2.80;99.90
62912;DHT22;49111;51.028;4.218;2024-01-11T13:06:33;2.90;99.90
62912;DHT22;49111;51.028;4.218;2024-01-11T13:09:00;2.80;99.90
62912;DHT22;49111;51.028;4.218;2024-01-11T13:11:26;2.90;99.90
62912;DHT22;49111;51.028;4.218;2024-01-11T13:13:53;2.90;99.90
62912;DHT22;49111;51.028;4.218;2024-01-11T13:16:19;2.90;99.90
62912;DHT22;49111;51.028;4.218;2024-01-11T13:18:46;2.90;99.90
62912;DHT22;49111;51.028;4.218;2024-01-11T13:21:12;3.00;99.90
62912;DHT22;49111;51.028;4.218;2024-01-11T13:23:38;3.00;99.80
62912;DHT22;49111;51.028;4.218;2024-01-11T13:26:05;3.00;99.40
62912;DHT22;49111;51.028;4.218;2024-01-11T13:28:33;3.00;99.70
62912;DHT22;49111;51.028;4.218;2024-01-11T13:30:59;3.00;99.80
62912;DHT22;49111;51.028;4.218;2024-01-11T13:33:25;3.10;99.90
62912;DHT22;49111;51.028;4.218;2024-01-11T13:35:51;3.10;99.90
62912;DHT22;49111;51.028;4.218;2024-01-11T13:38:18;3.10;99.80
62912;DHT22;49111;51.028;4.218;2024-01-11T13:40:44;3.10;99.50
62912;DHT22;49111;51.028;4.218;2024-01-11T13:43:10;3.10;99.50
62912;DHT22;49111;51.028;4.218;2024-01-11T13:45:36;3.10;99.40
62912;DHT22;49111;51.028;4.218;2024-01-11T13:48:03;3.20;99.50
62912;DHT22;49111;51.028;4.218;2024-01-11T13:50:29;3.70;99.40
62912;DHT22;49111;51.028;4.218;2024-01-11T13:52:55;3.30;99.00
62912;DHT22;49111;51.028;4.218;2024-01-11T13:55:21;3.30;98.10
62912;DHT22;49111;51.028;4.218;2024-01-11T13:57:51;3.20;97.90
62912;DHT22;49111;51.028;4.218;2024-01-11T14:00:18;3.10;98.00
62912;DHT22;49111;51.028;4.218;2024-01-11T14:02:45;3.10;98.30
62912;DHT22;49111;51.028;4.218;2024-01-11T14:05:12;3.20;97.40
62912;DHT22;49111;51.028;4.218;2024-01-11T14:07:43;3.10;96.70
62912;DHT22;49111;51.028;4.218;2024-01-11T14:10:12;3.20;95.90
62912;DHT22;49111;51.028;4.218;2024-01-11T14:12:39;3.20;95.50
62912;DHT22;49111;51.028;4.218;2024-01-11T14:15:06;3.20;95.60
62912;DHT22;49111;51.028;4.218;2024-01-11T14:17:33;3.20;95.60
62912;DHT22;49111;51.028;4.218;2024-01-11T14:20:00;2.80;95.40
62912;DHT22;49111;51.028;4.218;2024-01-11T14:22:26;3.10;95.60
62912;DHT22;49111;51.028;4.218;2024-01-11T14:24:52;3.20;96.00
62912;DHT22;49111;51.028;4.218;2024-01-11T14:27:19;3.20;95.30
62912;DHT22;49111;51.028;4.218;2024-01-11T14:29:46;3.20;95.60
62912;DHT22;49111;51.028;4.218;2024-01-11T14:32:12;3.20;96.10
62912;DHT22;49111;51.028;4.218;2024-01-11T14:34:42;3.10;96.70
62912;DHT22;49111;51.028;4.218;2024-01-11T14:37:10;3.00;98.00
62912;DHT22;49111;51.028;4.218;2024-01-11T14:39:37;3.00;98.60
62912;DHT22;49111;51.028;4.218;2024-01-11T14:42:03;2.90;99.90
62912;DHT22;49111;51.028;4.218;2024-01-11T14:44:28;2.80;99.90
62912;DHT22;49111;51.028;4.218;2024-01-11T14:46:55;2.90;99.90
62912;DHT22;49111;51.028;4.218;2024-01-11T14:49:21;2.90;99.90
62912;DHT22;49111;51.028;4.218;2024-01-11T14:51:47;2.90;99.90
62912;DHT22;49111;51.028;4.218;2024-01-11T14:54:13;2.90;99.90
62912;DHT22;49111;51.028;4.218;2024-01-11T14:56:39;2.90;99.90
62912;DHT22;49111;51.028;4.218;2024-01-11T14:59:05;2.80;99.90
62912;DHT22;49111;51.028;4.218;2024-01-11T15:01:30;2.70;99.90
62912;DHT22;49111;51.028;4.218;2024-01-11T15:03:56;2.50;99.90
62912;DHT22;49111;51.028;4.218;2024-01-11T15:06:22;2.50;99.90
62912;DHT22;49111;51.028;4.218;2024-01-11T15:08:49;2.50;99.90
62912;DHT22;49111;51.028;4.218;2024-01-11T15:11:15;2.40;99.90
62912;DHT22;49111;51.028;4.218;2024-01-11T15:13:41;2.40;99.90
62912;DHT22;49111;51.028;4.218;2024-01-11T15:16:07;2.50;99.90
62912;DHT22;49111;51.028;4.218;2024-01-11T15:18:33;2.60;99.90
62912;DHT22;49111;51.028;4.218;2024-01-11T15:20:59;2.60;99.90
62912;DHT22;49111;51.028;4.218;2024-01-11T15:23:25;2.50;99.90
62912;DHT22;49111;51.028;4.218;2024-01-11T15:25:51;2.60;99.90
62912;DHT22;49111;51.028;4.218;2024-01-11T15:28:18;2.70;99.90
62912;DHT22;49111;51.028;4.218;2024-01-11T15:30:45;2.90;99.90
62912;DHT22;49111;51.028;4.218;2024-01-11T15:33:11;2.90;99.90
62912;DHT22;49111;51.028;4.218;2024-01-11T15:35:37;3.10;99.90
62912;DHT22;49111;51.028;4.218;2024-01-11T15:38:03;3.10;99.90
62912;DHT22;49111;51.028;4.218;2024-01-11T15:40:30;3.10;99.90
62912;DHT22;49111;51.028;4.218;2024-01-11T15:42:56;3.20;99.90
62912;DHT22;49111;51.028;4.218;2024-01-11T15:45:23;3.30;99.90
62912;DHT22;49111;51.028;4.218;2024-01-11T15:47:49;3.30;99.90
62912;DHT22;49111;51.028;4.218;2024-01-11T15:50:15;3.30;99.90
62912;DHT22;49111;51.028;4.218;2024-01-11T15:52:41;3.40;99.90
62912;DHT22;49111;51.028;4.218;2024-01-11T15:55:08;3.40;99.90
62912;DHT22;49111;51.028;4.218;2024-01-11T15:57:37;3.50;99.90
62912;DHT22;49111;51.028;4.218;2024-01-11T16:00:04;3.60;99.90
62912;DHT22;49111;51.028;4.218;2024-01-11T16:02:37;3.60;99.90
62912;DHT22;49111;51.028;4.218;2024-01-11T16:05:06;3.60;99.90
62912;DHT22;49111;51.028;4.218;2024-01-11T16:07:32;3.60;99.90
62912;DHT22;49111;51.028;4.218;2024-01-11T16:09:58;3.50;99.90
62912;DHT22;49111;51.028;4.218;2024-01-11T16:12:24;3.60;99.90
62912;DHT22;49111;51.028;4.218;2024-01-11T16:14:50;3.60;99.90
62912;DHT22;49111;51.028;4.218;2024-01-11T16:17:17;3.60;99.90
62912;DHT22;49111;51.028;4.218;2024-01-11T16:19:43;3.70;99.90
62912;DHT22;49111;51.028;4.218;2024-01-11T16:22:08;3.80;99.90
62912;DHT22;49111;51.028;4.218;2024-01-11T16:24:34;3.80;99.90
62912;DHT22;49111;51.028;4.218;2024-01-11T16:27:00;3.80;99.90
62912;DHT22;49111;51.028;4.218;2024-01-11T16:29:26;3.80;99.90
62912;DHT22;49111;51.028;4.218;2024-01-11T16:31:52;3.80;99.90
62912;DHT22;49111;51.028;4.218;2024-01-11T16:34:18;3.90;99.90
62912;DHT22;49111;51.028;4.218;2024-01-11T16:36:44;3.80;99.90